PMDY Airport Information

Runway Information
Runway 06 Length 7904 ft width 200 ft
Elevation 13 ft Threshold 0 ft Heading 69
Runway 24 Length 7904 ft Width 200 ft
Elevation 7 ft Threshold 0 ft Heading 249
Runway 15 Length 0 ft width 0 ft
Elevation 6 ft Threshold 0 ft Heading 0
Runway 33 Length 0 ft Width 0 ft
Elevation 7 ft Threshold 0 ft Heading 0
Airport Frequencies
Type AWOS Name AWOS 3 Frequency 118.325 MHZ
Type CTAF Name CTAF Frequency 122.9 MHZ
Type RDO Name RDO Frequency 126.2 MHZ
Airport Navaids
Type NDB Name Midway Frequency 400 KHZ
Airport Weather Information & NOTAM
ADDS - METARS form results

(0843 UTC 24 April 2018)
 
METAR text: PMDY 240756Z AUTO 11007KT 10SM CLR 22/19 A3024 RMK AO2 SLP240 T02170194
Conditions at: PMDY (MIDWAY ISLAND NA, HI, US) observed 0756 UTC 24 April 2018
Temperature: 21.7°C (71°F)
Dewpoint: 19.4°C (67°F) [RH = 87%]
Pressure (altimeter): 30.24 inches Hg (1024.1 mb)
[Sea-level pressure: 1024.0 mb]
Winds: from the ESE (110 degrees) at 8 MPH (7 knots; 3.6 m/s)
Visibility: 10 or more miles (16+ km)
Ceiling: at least 12,000 feet AGL
Clouds: sky clear below 12,000 feet AGL
Weather: automated observation with no human augmentation;
there may or may not be significant weather present at this time